Anchor, Texas
Current Conditions -  °F | °C
As of 9:53 PM on Sunday 25 Jan 2015 (Local Time) from KLBX Reporting Station
Clear Clear  
Wind Chill: 56°   Ceiling: Unl
Heat Index: 56°   Visibility: 10mi
Dew Point: 40°   Wind: 5mph
Humidity: 55%   Direction: 310°NW
Pressure: 30.14"   Gusts: NA
Location:  29.1898°N, 95.4754°W
Report Text: KLBX 260353Z AUTO 31004KT 10SM CLR 13/04 A3014 RMK AO2 SLP206 T01330044
Loading
Personal Weather Stations






























Interactive Weather Map New forecast layout! Learn more

10-Day Weather Forecast

Advertisements
Track Severe Weather on mobile